Sumner, Michigan
Current Conditions -  °F | °C
As of 4:34 PM on Saturday 25 Oct 2014 (Local Time) from KAMN Reporting Station
Clear Clear  
Wind Chill: 65°   Ceiling: Unl
Heat Index: 65°   Visibility: 10mi
Dew Point: 30°   Wind: 25mph
Humidity: 27%   Direction: 270°W
Pressure: 29.75"   Gusts: 30mph
Location:  43.31°N, 84.82°W
Report Text: KAMN 252034Z AUTO 27022G26KT 10SM CLR 19/M01 A2975 RMK AO2 T01851010
Loading
Personal Weather Stations






























Interactive Weather Map New forecast layout! Learn more

10-Day Weather Forecast

Advertisements
Track Severe Weather on mobile